createdAt,value
2016-12-22T00:00:56.040Z,0
2016-12-22T00:02:07.026Z,0
2016-12-22T00:03:18.210Z,0
2016-12-22T00:04:29.200Z,0
2016-12-22T00:05:40.188Z,0
2016-12-22T00:06:51.404Z,0
2016-12-22T00:08:02.395Z,0
2016-12-22T00:09:13.383Z,0
2016-12-22T00:10:24.367Z,0
2016-12-22T00:11:35.548Z,0
2016-12-22T00:12:46.538Z,0
2016-12-22T00:13:57.529Z,0
2016-12-22T00:15:08.526Z,0
2016-12-22T00:16:19.511Z,0
2016-12-22T00:17:30.493Z,0
2016-12-22T00:18:41.487Z,0
2016-12-22T00:19:52.471Z,0
2016-12-22T00:21:03.464Z,0
2016-12-22T00:22:14.647Z,0
2016-12-22T00:23:25.620Z,0
2016-12-22T00:24:36.632Z,0
2016-12-22T00:25:47.619Z,0
2016-12-22T00:26:58.602Z,0
2016-12-22T00:28:09.589Z,0
2016-12-22T00:29:20.577Z,0
2016-12-22T00:30:31.799Z,0
2016-12-22T00:31:42.784Z,0
2016-12-22T00:32:53.774Z,0
2016-12-22T00:34:04.763Z,0
2016-12-22T00:35:15.748Z,0
2016-12-22T00:36:26.743Z,0
2016-12-22T00:37:37.936Z,0
2016-12-22T00:38:48.915Z,0
2016-12-22T00:39:59.898Z,0
2016-12-22T00:41:10.871Z,0
2016-12-22T00:42:22.066Z,0
2016-12-22T00:43:33.051Z,0
2016-12-22T00:44:44.237Z,0
2016-12-22T00:45:55.225Z,0
2016-12-22T00:47:06.213Z,0
2016-12-22T00:48:17.197Z,0
2016-12-22T00:49:28.174Z,0
2016-12-22T00:50:39.160Z,0
2016-12-22T00:51:50.137Z,0
2016-12-22T00:53:01.119Z,0
2016-12-22T00:54:12.138Z,0
2016-12-22T00:55:23.121Z,0
2016-12-22T00:56:34.348Z,0
2016-12-22T00:57:45.327Z,0
2016-12-22T00:58:56.310Z,0
2016-12-22T01:00:07.345Z,0
2016-12-22T01:01:18.336Z,0
2016-12-22T01:02:29.323Z,0
2016-12-22T01:03:40.309Z,0
2016-12-22T01:04:51.291Z,0
2016-12-22T01:06:02.276Z,0
2016-12-22T01:07:13.266Z,0
2016-12-22T01:08:24.255Z,0
2016-12-22T01:09:35.250Z,0
2016-12-22T01:10:46.478Z,0
2016-12-22T01:11:57.469Z,0
2016-12-22T01:13:08.449Z,0
2016-12-22T01:14:19.431Z,0
2016-12-22T01:15:30.477Z,0
2016-12-22T01:16:41.456Z,0
2016-12-22T01:17:52.440Z,0
2016-12-22T01:19:03.425Z,0
2016-12-22T01:20:14.455Z,0
2016-12-22T01:21:25.847Z,0
2016-12-22T01:22:37.238Z,0
2016-12-22T01:23:48.227Z,0
2016-12-22T01:24:59.210Z,0
2016-12-22T01:26:10.198Z,0
2016-12-22T01:27:21.186Z,0
2016-12-22T01:28:32.175Z,0
2016-12-22T01:29:43.161Z,0
2016-12-22T01:30:54.201Z,0
2016-12-22T01:32:05.196Z,0
2016-12-22T01:33:16.192Z,0
2016-12-22T01:34:27.375Z,0
2016-12-22T01:35:38.355Z,0
2016-12-22T01:36:49.545Z,0
2016-12-22T01:38:00.531Z,0
2016-12-22T01:39:11.515Z,0
2016-12-22T01:40:22.509Z,0
2016-12-22T01:41:33.489Z,0
2016-12-22T01:42:44.477Z,0
2016-12-22T01:43:55.459Z,0
2016-12-22T01:45:06.452Z,0
2016-12-22T01:46:17.449Z,0
2016-12-22T01:47:28.434Z,0
2016-12-22T01:48:39.640Z,0
2016-12-22T01:49:50.628Z,0
2016-12-22T01:51:01.613Z,0
2016-12-22T01:52:12.607Z,0
2016-12-22T01:53:23.806Z,0
2016-12-22T01:54:34.808Z,0
2016-12-22T01:55:45.793Z,0
2016-12-22T01:56:56.777Z,0
2016-12-22T01:58:07.765Z,0
2016-12-22T01:59:18.747Z,0
2016-12-22T02:00:29.724Z,0
2016-12-22T02:01:40.706Z,0
2016-12-22T02:02:51.686Z,0
2016-12-22T02:04:02.678Z,0
2016-12-22T02:05:13.865Z,0
2016-12-22T02:06:24.854Z,0
2016-12-22T02:07:35.831Z,0
2016-12-22T02:08:47.214Z,0
2016-12-22T02:09:58.210Z,0
2016-12-22T02:11:09.197Z,0
2016-12-22T02:12:20.185Z,0
2016-12-22T02:13:31.166Z,0
2016-12-22T02:14:42.155Z,0
2016-12-22T02:15:53.186Z,0
2016-12-22T02:17:04.177Z,0
2016-12-22T02:18:15.189Z,0
2016-12-22T02:19:26.377Z,0
2016-12-22T02:20:37.360Z,0
2016-12-22T02:21:48.373Z,0
2016-12-22T02:22:59.364Z,0
2016-12-22T02:24:10.548Z,0
2016-12-22T02:25:21.552Z,0
2016-12-22T02:26:32.542Z,0
2016-12-22T02:27:43.536Z,0
2016-12-22T02:28:54.525Z,0
2016-12-22T02:30:05.777Z,0
2016-12-22T02:31:16.804Z,0
2016-12-22T02:32:27.797Z,0
2016-12-22T02:33:38.974Z,0
2016-12-22T02:34:49.964Z,0
2016-12-22T02:36:01.008Z,0
2016-12-22T02:37:12.035Z,0
2016-12-22T02:38:23.218Z,0
2016-12-22T02:39:34.393Z,0
2016-12-22T02:40:45.377Z,0
2016-12-22T02:41:56.359Z,0
2016-12-22T02:43:07.358Z,0
2016-12-22T02:44:18.352Z,0
2016-12-22T02:45:29.570Z,0
2016-12-22T02:46:40.560Z,0
2016-12-22T02:47:51.544Z,0
2016-12-22T02:49:02.537Z,0
2016-12-22T02:50:13.577Z,0
2016-12-22T02:51:24.559Z,0
2016-12-22T02:52:35.539Z,0
2016-12-22T02:53:46.525Z,0
2016-12-22T02:54:57.716Z,0
2016-12-22T02:56:08.699Z,0
2016-12-22T02:57:19.683Z,0
2016-12-22T02:58:30.662Z,0
2016-12-22T02:59:41.647Z,0
2016-12-22T03:00:52.679Z,0
2016-12-22T03:02:03.859Z,0
2016-12-22T03:03:14.841Z,0
2016-12-22T03:04:25.820Z,0
2016-12-22T03:05:36.857Z,0
2016-12-22T03:06:47.884Z,0
2016-12-22T03:07:58.876Z,0
2016-12-22T03:09:10.060Z,0
2016-12-22T03:10:21.048Z,0
2016-12-22T03:11:32.232Z,0
2016-12-22T03:12:43.440Z,0
2016-12-22T03:13:54.433Z,0
2016-12-22T03:15:05.436Z,0
2016-12-22T03:16:16.626Z,0
2016-12-22T03:17:27.619Z,0
2016-12-22T03:18:38.616Z,0
2016-12-22T03:19:49.603Z,0
2016-12-22T03:21:00.590Z,0
2016-12-22T03:22:11.773Z,0
2016-12-22T03:23:22.767Z,0
2016-12-22T03:24:33.745Z,0
2016-12-22T03:25:44.731Z,0
2016-12-22T03:26:55.738Z,0
2016-12-22T03:28:06.752Z,0
2016-12-22T03:29:17.942Z,0
2016-12-22T03:30:29.129Z,0
2016-12-22T03:31:40.121Z,0
2016-12-22T03:32:51.109Z,0
2016-12-22T03:34:02.299Z,0
2016-12-22T03:35:13.287Z,0
2016-12-22T03:36:24.275Z,0
2016-12-22T03:37:35.263Z,0
2016-12-22T03:38:46.274Z,0
2016-12-22T03:39:57.462Z,0
2016-12-22T03:41:08.447Z,0
2016-12-22T03:42:19.430Z,0
2016-12-22T03:43:30.422Z,0
2016-12-22T03:44:41.409Z,0
2016-12-22T03:45:52.390Z,0
2016-12-22T03:47:03.383Z,0
2016-12-22T03:48:14.381Z,0
2016-12-22T03:49:25.368Z,0
2016-12-22T03:50:36.357Z,0
2016-12-22T03:51:47.336Z,0
2016-12-22T03:52:58.330Z,0
2016-12-22T03:54:09.309Z,0
2016-12-22T03:55:20.296Z,0
2016-12-22T03:56:31.295Z,0
2016-12-22T03:57:42.280Z,0
2016-12-22T03:58:53.262Z,0
2016-12-22T04:00:04.444Z,0
2016-12-22T04:01:15.438Z,0
2016-12-22T04:02:26.620Z,0
2016-12-22T04:03:37.607Z,0
2016-12-22T04:04:48.598Z,0
2016-12-22T04:05:59.580Z,0
2016-12-22T04:07:10.773Z,0
2016-12-22T04:08:21.763Z,0
2016-12-22T04:09:32.757Z,0
2016-12-22T04:10:43.747Z,0
2016-12-22T04:11:54.765Z,0
2016-12-22T04:13:05.959Z,0
2016-12-22T04:14:16.945Z,0
2016-12-22T04:15:28.122Z,0
2016-12-22T04:16:39.113Z,0
2016-12-22T04:17:50.299Z,0
2016-12-22T04:19:01.290Z,0
2016-12-22T04:20:12.275Z,0
2016-12-22T04:21:23.271Z,0
2016-12-22T04:22:34.268Z,0
2016-12-22T04:23:45.256Z,0
2016-12-22T04:24:56.237Z,0
2016-12-22T04:26:07.223Z,0
2016-12-22T04:27:18.436Z,0
2016-12-22T04:28:29.421Z,0
2016-12-22T04:29:40.413Z,0
2016-12-22T04:30:51.453Z,0
2016-12-22T04:32:02.429Z,0
2016-12-22T04:33:13.412Z,0
2016-12-22T04:34:24.402Z,0
2016-12-22T04:35:35.399Z,0
2016-12-22T04:36:46.434Z,0
2016-12-22T04:37:57.417Z,0
2016-12-22T04:39:08.402Z,0
2016-12-22T04:40:19.400Z,0
2016-12-22T04:41:30.378Z,0
2016-12-22T04:42:41.613Z,0
2016-12-22T04:43:52.630Z,0
2016-12-22T04:45:03.670Z,0
2016-12-22T04:46:14.859Z,0
2016-12-22T04:47:26.049Z,0
2016-12-22T04:48:37.109Z,0
2016-12-22T04:49:48.288Z,0
2016-12-22T04:50:59.276Z,0
2016-12-22T04:52:10.468Z,0
2016-12-22T04:53:21.492Z,0
2016-12-22T04:54:32.727Z,0
2016-12-22T04:55:44.113Z,0
2016-12-22T04:56:55.099Z,0
2016-12-22T04:58:06.081Z,0
2016-12-22T04:59:17.072Z,0
2016-12-22T05:00:28.065Z,0
2016-12-22T05:01:39.046Z,0
2016-12-22T05:02:50.034Z,0
2016-12-22T05:04:01.019Z,0
2016-12-22T05:05:12.206Z,0
2016-12-22T05:06:23.193Z,0
2016-12-22T05:07:34.183Z,0
2016-12-22T05:08:45.167Z,0
2016-12-22T05:09:56.154Z,0
2016-12-22T05:11:07.136Z,0
2016-12-22T05:12:18.123Z,0
2016-12-22T05:13:29.109Z,0
2016-12-22T05:14:40.101Z,0
2016-12-22T05:15:51.083Z,0
2016-12-22T05:17:02.273Z,0
2016-12-22T05:18:13.468Z,0
2016-12-22T05:19:24.454Z,0
2016-12-22T05:20:35.437Z,0
2016-12-22T05:21:46.420Z,0
2016-12-22T05:22:57.638Z,0
2016-12-22T05:24:08.633Z,0
2016-12-22T05:25:19.621Z,0
2016-12-22T05:26:30.807Z,0
2016-12-22T05:27:41.825Z,0
2016-12-22T05:28:52.798Z,0
2016-12-22T05:30:03.792Z,0
2016-12-22T05:31:14.969Z,0
2016-12-22T05:32:26.154Z,0
2016-12-22T05:33:37.151Z,0
2016-12-22T05:34:48.343Z,0
2016-12-22T05:35:59.354Z,0
2016-12-22T05:37:10.553Z,0
2016-12-22T05:38:21.544Z,0
2016-12-22T05:39:32.533Z,0
2016-12-22T05:40:43.573Z,0
2016-12-22T05:41:54.556Z,0
2016-12-22T05:43:05.540Z,0
2016-12-22T05:44:16.723Z,0
2016-12-22T05:45:27.754Z,0
2016-12-22T05:46:38.937Z,0
2016-12-22T05:47:50.122Z,0
2016-12-22T05:49:01.139Z,0
2016-12-22T05:50:12.130Z,0
2016-12-22T05:51:23.366Z,0
2016-12-22T05:52:34.346Z,0
2016-12-22T05:53:45.536Z,0
2016-12-22T05:54:56.523Z,0
2016-12-22T05:56:07.509Z,0
2016-12-22T05:57:18.550Z,0
2016-12-22T05:58:29.931Z,0
2016-12-22T05:59:40.919Z,0
2016-12-22T06:00:52.098Z,0
2016-12-22T06:02:03.078Z,0
2016-12-22T06:03:14.104Z,0
2016-12-22T06:04:25.114Z,0
2016-12-22T06:05:36.102Z,0
2016-12-22T06:06:47.096Z,0
2016-12-22T06:07:58.089Z,0
2016-12-22T06:09:09.126Z,0
2016-12-22T06:10:20.106Z,0
2016-12-22T06:11:31.093Z,0
2016-12-22T06:12:42.278Z,0
2016-12-22T06:13:53.667Z,0
2016-12-22T06:15:04.695Z,0
2016-12-22T06:16:15.684Z,0
2016-12-22T06:17:26.670Z,0
2016-12-22T06:18:37.654Z,0
2016-12-22T06:19:48.644Z,0
2016-12-22T06:20:59.828Z,0
2016-12-22T06:22:10.809Z,0
2016-12-22T06:23:21.796Z,0
2016-12-22T06:24:32.781Z,0
2016-12-22T06:25:43.978Z,0
2016-12-22T06:26:54.960Z,0
2016-12-22T06:28:05.945Z,0
2016-12-22T06:29:16.925Z,0
2016-12-22T06:30:27.912Z,0
2016-12-22T06:31:38.904Z,0
2016-12-22T06:32:49.894Z,0
2016-12-22T06:34:00.881Z,0
2016-12-22T06:35:12.320Z,0
2016-12-22T06:36:23.305Z,0
2016-12-22T06:37:34.300Z,0
2016-12-22T06:38:45.488Z,0
2016-12-22T06:39:56.468Z,0
2016-12-22T06:41:07.506Z,0
2016-12-22T06:42:18.492Z,0
2016-12-22T06:43:29.479Z,0
2016-12-22T06:44:40.684Z,0
2016-12-22T06:45:51.669Z,0
2016-12-22T06:47:02.663Z,0
2016-12-22T06:48:14.049Z,0
2016-12-22T06:49:25.034Z,0
2016-12-22T06:50:36.076Z,0
2016-12-22T06:51:47.053Z,0
2016-12-22T06:52:58.244Z,0
2016-12-22T06:54:09.223Z,0
2016-12-22T06:55:20.207Z,0
2016-12-22T06:56:31.197Z,0
2016-12-22T06:57:42.174Z,0
2016-12-22T06:58:53.166Z,0
2016-12-22T07:00:04.155Z,0
2016-12-22T07:01:15.138Z,0
2016-12-22T07:02:26.322Z,0
2016-12-22T07:03:37.300Z,0
2016-12-22T07:04:48.493Z,0
2016-12-22T07:05:59.475Z,0
2016-12-22T07:07:10.865Z,0
2016-12-22T07:08:21.861Z,0
2016-12-22T07:09:32.848Z,0
2016-12-22T07:10:43.883Z,0
2016-12-22T07:11:54.891Z,4
2016-12-22T07:13:06.278Z,4
2016-12-22T07:14:17.268Z,4
2016-12-22T07:15:28.251Z,4
2016-12-22T07:16:39.319Z,0
2016-12-22T07:17:50.298Z,4
2016-12-22T07:19:01.285Z,4
2016-12-22T07:20:12.269Z,4
2016-12-22T07:21:23.257Z,4
2016-12-22T07:22:34.446Z,4
2016-12-22T07:23:45.441Z,8
2016-12-22T07:24:56.444Z,8
2016-12-22T07:26:07.428Z,8
2016-12-22T07:27:18.414Z,12
2016-12-22T07:28:29.441Z,12
2016-12-22T07:29:40.458Z,12
2016-12-22T07:30:51.439Z,16
2016-12-22T07:32:02.627Z,12
2016-12-22T07:33:13.612Z,16
2016-12-22T07:34:24.628Z,20
2016-12-22T07:35:35.615Z,20
2016-12-22T07:36:46.597Z,28
2016-12-22T07:37:57.577Z,28
2016-12-22T07:39:08.565Z,32
2016-12-22T07:40:19.593Z,36
2016-12-22T07:41:30.576Z,36
2016-12-22T07:42:41.568Z,32
2016-12-22T07:43:52.553Z,32
2016-12-22T07:45:03.537Z,36
2016-12-22T07:46:14.513Z,32
2016-12-22T07:47:25.493Z,32
2016-12-22T07:48:36.476Z,40
2016-12-22T07:49:47.466Z,40
2016-12-22T07:50:58.452Z,44
2016-12-22T07:52:09.436Z,44
2016-12-22T07:53:20.423Z,48
2016-12-22T07:54:31.410Z,52
2016-12-22T07:55:42.398Z,56
2016-12-22T07:56:53.383Z,56
2016-12-22T07:58:04.365Z,60
2016-12-22T07:59:15.354Z,60
2016-12-22T08:00:26.384Z,64
2016-12-22T08:01:37.366Z,76
2016-12-22T08:02:48.352Z,80
2016-12-22T08:03:59.348Z,84
2016-12-22T08:05:10.371Z,84
2016-12-22T08:06:21.360Z,84
2016-12-22T08:07:32.345Z,92
2016-12-22T08:08:43.537Z,96
2016-12-22T08:09:54.511Z,108
2016-12-22T08:11:05.514Z,120
2016-12-22T08:12:16.906Z,128
2016-12-22T08:13:28.097Z,140
2016-12-22T08:14:39.286Z,156
2016-12-22T08:15:50.328Z,180
2016-12-22T08:17:01.548Z,192
2016-12-22T08:18:12.737Z,196
2016-12-22T08:19:23.723Z,200
2016-12-22T08:20:34.710Z,212
2016-12-22T08:21:45.691Z,228
2016-12-22T08:22:56.668Z,244
2016-12-22T08:24:07.848Z,252
2016-12-22T08:25:18.879Z,268
2016-12-22T08:26:29.863Z,288
2016-12-22T08:27:40.849Z,308
2016-12-22T08:28:51.842Z,324
2016-12-22T08:30:02.834Z,320
2016-12-22T08:31:14.049Z,332
2016-12-22T08:32:25.033Z,348
2016-12-22T08:33:36.023Z,340
2016-12-22T08:34:47.015Z,328
2016-12-22T08:35:58.191Z,332
2016-12-22T08:37:09.177Z,332
2016-12-22T08:38:20.153Z,332
2016-12-22T08:39:31.344Z,336
2016-12-22T08:40:42.386Z,344
2016-12-22T08:41:53.769Z,368
2016-12-22T08:43:04.747Z,416
2016-12-22T08:44:15.746Z,456
2016-12-22T08:45:26.929Z,508
2016-12-22T08:46:37.909Z,556
2016-12-22T08:47:48.898Z,616
2016-12-22T08:48:59.884Z,668
2016-12-22T08:50:10.918Z,720
2016-12-22T08:51:21.901Z,784
2016-12-22T08:52:32.884Z,848
2016-12-22T08:53:43.871Z,912
2016-12-22T08:54:54.850Z,972
2016-12-22T08:56:05.833Z,1044
2016-12-22T08:57:16.821Z,1100
2016-12-22T08:58:28.020Z,1120
2016-12-22T08:59:39.004Z,1160
2016-12-22T09:00:50.183Z,1156
2016-12-22T09:02:01.179Z,1180
2016-12-22T09:03:12.168Z,1172
2016-12-22T09:04:23.157Z,1096
2016-12-22T09:05:34.190Z,984
2016-12-22T09:06:45.178Z,912
2016-12-22T09:07:56.362Z,892
2016-12-22T09:09:07.353Z,880
2016-12-22T09:10:18.531Z,868
2016-12-22T09:11:29.510Z,852
2016-12-22T09:12:40.501Z,808
2016-12-22T09:13:51.504Z,808
2016-12-22T09:15:02.537Z,784
2016-12-22T09:16:13.725Z,712
2016-12-22T09:19:24.583Z,520
2016-12-22T09:22:35.642Z,604
2016-12-22T09:23:46.635Z,636
2016-12-22T09:24:57.623Z,636
2016-12-22T09:26:08.659Z,604
2016-12-22T09:27:19.635Z,584
2016-12-22T09:28:30.623Z,592
2016-12-22T09:29:41.602Z,584
2016-12-22T09:30:52.586Z,560
2016-12-22T09:32:03.568Z,536
2016-12-22T09:33:14.763Z,532
2016-12-22T09:34:25.747Z,516
2016-12-22T09:35:36.731Z,508
2016-12-22T09:36:47.707Z,476
2016-12-22T09:37:58.716Z,440
2016-12-22T09:39:09.704Z,396
2016-12-22T09:40:20.689Z,380
2016-12-22T09:41:31.671Z,384
2016-12-22T09:42:42.856Z,408
2016-12-22T09:43:54.244Z,464
2016-12-22T09:45:05.219Z,528
2016-12-22T09:46:16.409Z,536
2016-12-22T09:47:27.589Z,488
2016-12-22T09:48:38.766Z,420
2016-12-22T09:49:49.747Z,392
2016-12-22T09:51:00.739Z,364
2016-12-22T09:52:11.720Z,360
2016-12-22T09:53:22.706Z,364
2016-12-22T09:54:33.682Z,396
2016-12-22T09:55:44.673Z,420
2016-12-22T09:56:55.655Z,452
2016-12-22T09:58:06.640Z,520
2016-12-22T09:59:17.631Z,584
2016-12-22T10:00:28.623Z,640
2016-12-22T10:01:39.610Z,644
2016-12-22T10:02:50.606Z,632
2016-12-22T10:04:01.596Z,672
2016-12-22T10:05:12.784Z,728
2016-12-22T10:06:23.976Z,764
2016-12-22T10:07:34.968Z,720
2016-12-22T10:08:45.954Z,712
2016-12-22T10:09:57.134Z,700
2016-12-22T10:11:08.129Z,716
2016-12-22T10:12:19.113Z,820
2016-12-22T10:13:30.098Z,848
2016-12-22T10:14:41.084Z,852
2016-12-22T10:15:52.073Z,896
2016-12-22T10:17:03.064Z,924
2016-12-22T10:18:14.040Z,872
2016-12-22T10:19:25.028Z,780
2016-12-22T10:20:36.017Z,716
2016-12-22T10:21:47.208Z,652
2016-12-22T10:22:58.195Z,632
2016-12-22T10:24:09.182Z,604
2016-12-22T10:25:20.175Z,572
2016-12-22T10:26:31.365Z,624
2016-12-22T10:27:42.783Z,648
2016-12-22T10:28:53.766Z,612
2016-12-22T10:30:04.807Z,596
2016-12-22T10:31:15.806Z,596
2016-12-22T10:32:26.985Z,564
2016-12-22T10:33:37.973Z,552
2016-12-22T10:34:48.968Z,608
2016-12-22T10:35:59.957Z,684
2016-12-22T10:37:10.947Z,708
2016-12-22T10:38:21.930Z,744
2016-12-22T10:39:32.916Z,820
2016-12-22T10:40:43.893Z,860
2016-12-22T10:41:54.882Z,812
2016-12-22T10:43:05.873Z,704
2016-12-22T10:44:16.858Z,628
2016-12-22T10:45:28.042Z,588
2016-12-22T10:46:39.018Z,600
2016-12-22T10:47:50.003Z,632
2016-12-22T10:49:01.188Z,692
2016-12-22T10:50:12.172Z,752
2016-12-22T10:51:23.156Z,816
2016-12-22T10:52:34.133Z,776
2016-12-22T10:53:45.127Z,756
2016-12-22T10:54:56.116Z,728
2016-12-22T10:56:07.103Z,720
2016-12-22T10:57:18.095Z,744
2016-12-22T10:58:29.080Z,776
2016-12-22T10:59:40.101Z,808
2016-12-22T11:00:51.170Z,864
2016-12-22T11:02:02.156Z,932
2016-12-22T11:03:13.143Z,1000
2016-12-22T11:04:24.126Z,1088
2016-12-22T11:05:35.315Z,1180
2016-12-22T11:06:46.299Z,1264
2016-12-22T11:07:57.286Z,1280
2016-12-22T11:09:08.275Z,1180
2016-12-22T11:10:19.314Z,1044
2016-12-22T11:11:30.308Z,960
2016-12-22T11:12:41.318Z,908
2016-12-22T11:13:52.307Z,872
2016-12-22T11:15:03.300Z,812
2016-12-22T11:16:14.292Z,792
2016-12-22T11:17:25.286Z,804
2016-12-22T11:18:36.470Z,816
2016-12-22T11:19:47.655Z,792
2016-12-22T11:20:58.644Z,756
2016-12-22T11:22:09.631Z,740
2016-12-22T11:23:20.622Z,760
2016-12-22T11:24:31.603Z,776
2016-12-22T11:25:42.590Z,792
2016-12-22T11:26:53.779Z,836
2016-12-22T11:28:04.766Z,856
2016-12-22T11:29:15.751Z,860
2016-12-22T11:30:26.743Z,808
2016-12-22T11:31:37.720Z,656
2016-12-22T11:32:48.909Z,636
2016-12-22T11:33:59.893Z,688
2016-12-22T11:35:10.928Z,780
2016-12-22T11:36:21.917Z,984
2016-12-22T11:37:33.108Z,1072
2016-12-22T11:38:44.101Z,968
2016-12-22T11:39:55.287Z,908
2016-12-22T11:41:06.273Z,1096
2016-12-22T11:42:17.257Z,1196
2016-12-22T11:43:28.242Z,1124
2016-12-22T11:44:39.238Z,1124
2016-12-22T11:45:50.236Z,1060
2016-12-22T11:47:01.442Z,1008
2016-12-22T11:48:12.427Z,1000
2016-12-22T11:49:23.423Z,980
2016-12-22T11:50:34.465Z,976
2016-12-22T11:51:45.452Z,1072
2016-12-22T11:52:56.447Z,1108
2016-12-22T11:54:07.431Z,1144
2016-12-22T11:55:18.816Z,1204
2016-12-22T11:56:30.004Z,1228
2016-12-22T11:57:40.992Z,1280
2016-12-22T11:58:51.990Z,1304
2016-12-22T12:00:02.978Z,1208
2016-12-22T12:01:13.966Z,1100
2016-12-22T12:02:24.951Z,1168
2016-12-22T12:03:36.139Z,1204
2016-12-22T12:04:47.122Z,1120
2016-12-22T12:05:58.117Z,1148
2016-12-22T12:07:09.102Z,1196
2016-12-22T12:08:20.097Z,1248
2016-12-22T12:09:31.081Z,1248
2016-12-22T12:10:42.055Z,1248
2016-12-22T12:11:53.038Z,1180
2016-12-22T12:13:04.028Z,1148
2016-12-22T12:14:15.011Z,1144
2016-12-22T12:15:25.995Z,1156
2016-12-22T12:16:37.175Z,1092
2016-12-22T12:17:48.159Z,1024
2016-12-22T12:18:59.178Z,968
2016-12-22T12:20:10.159Z,1032
2016-12-22T12:21:21.168Z,1008
2016-12-22T12:22:32.552Z,1024
2016-12-22T12:23:43.573Z,1156
2016-12-22T12:24:54.560Z,1080
2016-12-22T12:26:05.561Z,1032
2016-12-22T12:27:16.751Z,1060
2016-12-22T12:28:27.728Z,1068
2016-12-22T12:29:38.716Z,1132
2016-12-22T12:30:49.760Z,1192
2016-12-22T12:32:00.777Z,1144
2016-12-22T12:33:11.770Z,1184
2016-12-22T12:34:22.756Z,1224
2016-12-22T12:35:33.793Z,1224
2016-12-22T12:36:44.781Z,1244
2016-12-22T12:37:55.999Z,1328
2016-12-22T12:39:07.224Z,1216
2016-12-22T12:40:18.206Z,1184
2016-12-22T12:41:29.188Z,1160
2016-12-22T12:42:40.366Z,1104
2016-12-22T12:43:51.352Z,1140
2016-12-22T12:45:02.544Z,1116
2016-12-22T12:46:13.537Z,1160
2016-12-22T12:47:24.523Z,1192
2016-12-22T12:48:35.513Z,1112
2016-12-22T12:49:46.535Z,1224
2016-12-22T12:50:57.730Z,1280
2016-12-22T12:52:08.919Z,1356
2016-12-22T12:53:19.897Z,1400
2016-12-22T12:54:31.285Z,1288
2016-12-22T12:55:42.689Z,1240
2016-12-22T12:56:53.675Z,1164
2016-12-22T12:58:04.671Z,1212
2016-12-22T12:59:15.861Z,1040
2016-12-22T13:00:27.047Z,808
2016-12-22T13:01:38.037Z,816
2016-12-22T13:02:49.020Z,932
2016-12-22T13:04:00.008Z,1000
2016-12-22T13:05:11.001Z,912
2016-12-22T13:06:22.029Z,748
2016-12-22T13:07:33.007Z,720
2016-12-22T13:08:43.997Z,696
2016-12-22T13:09:55.013Z,720
2016-12-22T13:11:06.053Z,700
2016-12-22T13:12:17.034Z,680
2016-12-22T13:13:28.223Z,672
2016-12-22T13:14:39.202Z,708
2016-12-22T13:15:50.217Z,656
2016-12-22T13:17:01.210Z,568
2016-12-22T13:18:12.195Z,580
2016-12-22T13:19:23.381Z,532
2016-12-22T13:20:34.362Z,508
2016-12-22T13:21:45.544Z,508
2016-12-22T13:22:56.732Z,560
2016-12-22T13:24:07.722Z,564
2016-12-22T13:25:18.709Z,572
2016-12-22T13:26:29.691Z,532
2016-12-22T13:27:40.681Z,492
2016-12-22T13:28:51.675Z,496
2016-12-22T13:30:02.657Z,480
2016-12-22T13:31:13.647Z,448
2016-12-22T13:32:24.634Z,472
2016-12-22T13:33:35.632Z,488
2016-12-22T13:34:46.619Z,468
2016-12-22T13:35:57.662Z,476
2016-12-22T13:37:08.646Z,476
2016-12-22T13:38:20.030Z,488
2016-12-22T13:39:31.019Z,532
2016-12-22T13:40:42.012Z,500
2016-12-22T13:41:53.044Z,520
2016-12-22T13:43:04.028Z,548
2016-12-22T13:44:15.020Z,524
2016-12-22T13:45:25.999Z,512
2016-12-22T13:46:36.986Z,536
2016-12-22T13:47:48.026Z,548
2016-12-22T13:48:59.003Z,552
2016-12-22T13:50:10.000Z,536
2016-12-22T13:51:20.982Z,544
2016-12-22T13:52:31.968Z,552
2016-12-22T13:53:43.018Z,556
2016-12-22T13:54:54.220Z,540
2016-12-22T13:56:05.203Z,596
2016-12-22T13:57:16.219Z,600
2016-12-22T13:58:27.205Z,524
2016-12-22T13:59:38.248Z,488
2016-12-22T14:00:49.239Z,480
2016-12-22T14:02:00.231Z,532
2016-12-22T14:03:11.224Z,500
2016-12-22T14:04:22.210Z,480
2016-12-22T14:05:33.440Z,448
2016-12-22T14:06:44.425Z,452
2016-12-22T14:07:55.618Z,468
2016-12-22T14:09:06.610Z,480
2016-12-22T14:10:17.588Z,536
2016-12-22T14:11:28.832Z,488
2016-12-22T14:12:39.820Z,476
2016-12-22T14:13:50.810Z,492
2016-12-22T14:15:01.995Z,472
2016-12-22T14:16:13.184Z,456
2016-12-22T14:17:24.209Z,464
2016-12-22T14:18:35.186Z,464
2016-12-22T14:19:46.170Z,412
2016-12-22T14:20:57.151Z,384
2016-12-22T14:22:08.540Z,404
2016-12-22T14:23:19.576Z,380
2016-12-22T14:24:30.564Z,340
2016-12-22T14:25:41.579Z,320
2016-12-22T14:26:52.565Z,296
2016-12-22T14:28:03.765Z,284
2016-12-22T14:29:15.003Z,280
2016-12-22T14:30:25.993Z,268
2016-12-22T14:31:37.174Z,272
2016-12-22T14:32:48.161Z,328
2016-12-22T14:33:59.150Z,328
2016-12-22T14:35:10.190Z,300
2016-12-22T14:36:21.183Z,296
2016-12-22T14:37:32.172Z,300
2016-12-22T14:38:43.157Z,272
2016-12-22T14:39:54.149Z,252
2016-12-22T14:41:05.182Z,244
2016-12-22T14:42:16.185Z,228
2016-12-22T14:43:27.172Z,208
2016-12-22T14:44:38.167Z,188
2016-12-22T14:45:49.364Z,220
2016-12-22T14:47:00.397Z,216
2016-12-22T14:48:11.392Z,196
2016-12-22T14:49:22.385Z,188
2016-12-22T14:50:33.367Z,188
2016-12-22T14:51:44.356Z,168
2016-12-22T14:52:55.387Z,160
2016-12-22T14:54:06.378Z,176
2016-12-22T14:55:17.370Z,176
2016-12-22T14:56:28.356Z,152
2016-12-22T14:57:39.338Z,124
2016-12-22T14:58:50.374Z,116
2016-12-22T15:00:01.356Z,132
2016-12-22T15:01:12.341Z,128
2016-12-22T15:02:23.330Z,112
2016-12-22T15:03:34.320Z,100
2016-12-22T15:04:45.359Z,92
2016-12-22T15:05:56.377Z,84
2016-12-22T15:07:07.367Z,76
2016-12-22T15:08:18.359Z,68
2016-12-22T15:09:29.755Z,56
2016-12-22T15:10:40.796Z,60
2016-12-22T15:11:51.777Z,52
2016-12-22T15:13:02.759Z,52
2016-12-22T15:14:13.743Z,48
2016-12-22T15:15:24.745Z,44
2016-12-22T15:16:35.779Z,44
2016-12-22T15:17:46.776Z,44
2016-12-22T15:18:57.770Z,32
2016-12-22T15:20:08.965Z,32
2016-12-22T15:21:19.955Z,32
2016-12-22T15:22:30.997Z,40
2016-12-22T15:23:41.990Z,36
2016-12-22T15:24:52.988Z,32
2016-12-22T15:26:04.177Z,32
2016-12-22T15:27:15.591Z,28
2016-12-22T15:28:26.638Z,24
2016-12-22T15:29:37.644Z,20
2016-12-22T15:30:48.630Z,16
2016-12-22T15:31:59.626Z,16
2016-12-22T15:33:10.628Z,12
2016-12-22T15:34:21.664Z,12
2016-12-22T15:35:32.858Z,8
2016-12-22T15:36:43.844Z,8
2016-12-22T15:37:54.824Z,8
2016-12-22T15:39:05.816Z,4
2016-12-22T15:40:16.886Z,4
2016-12-22T15:41:27.866Z,4
2016-12-22T15:42:38.880Z,4
2016-12-22T15:43:50.073Z,4
2016-12-22T15:45:01.058Z,0
2016-12-22T15:46:12.108Z,4
2016-12-22T15:47:23.091Z,4
2016-12-22T15:48:34.083Z,0
2016-12-22T15:49:45.059Z,0
2016-12-22T15:50:56.048Z,4
2016-12-22T15:52:07.094Z,0
2016-12-22T15:53:18.079Z,0
2016-12-22T15:54:29.086Z,0
2016-12-22T15:55:40.283Z,0
2016-12-22T15:56:51.286Z,0
2016-12-22T15:58:02.726Z,0
2016-12-22T15:59:13.909Z,0
2016-12-22T16:00:24.905Z,0
2016-12-22T16:01:35.897Z,0
2016-12-22T16:02:47.089Z,0
2016-12-22T16:03:58.123Z,0
2016-12-22T16:05:09.110Z,0
2016-12-22T16:06:20.092Z,0
2016-12-22T16:07:31.081Z,0
2016-12-22T16:08:42.063Z,0
2016-12-22T16:09:53.096Z,0
2016-12-22T16:11:04.075Z,0
2016-12-22T16:12:15.070Z,0
2016-12-22T16:13:26.055Z,0
2016-12-22T16:14:37.247Z,0
2016-12-22T16:15:48.241Z,0
2016-12-22T16:16:59.427Z,0
2016-12-22T16:18:10.413Z,0
2016-12-22T16:19:21.401Z,0
2016-12-22T16:20:32.389Z,0
2016-12-22T16:21:43.388Z,0
2016-12-22T16:22:54.373Z,0
2016-12-22T16:24:05.362Z,0
2016-12-22T16:25:16.558Z,0
2016-12-22T16:26:27.747Z,0
2016-12-22T16:27:38.947Z,0
2016-12-22T16:28:50.134Z,0
2016-12-22T16:30:01.319Z,0
2016-12-22T16:31:12.360Z,0
2016-12-22T16:32:23.554Z,0
2016-12-22T16:33:34.552Z,0
2016-12-22T16:34:45.746Z,0
2016-12-22T16:35:56.788Z,0
2016-12-22T16:37:07.779Z,0
2016-12-22T16:38:18.759Z,0
2016-12-22T16:39:29.947Z,0
2016-12-22T16:40:40.936Z,0
2016-12-22T16:41:51.971Z,0
2016-12-22T16:43:02.953Z,0
2016-12-22T16:44:14.143Z,0
2016-12-22T16:45:25.124Z,0
2016-12-22T16:46:36.117Z,0
2016-12-22T16:47:47.356Z,0
2016-12-22T16:48:58.345Z,0
2016-12-22T16:50:09.327Z,0
2016-12-22T16:51:20.322Z,0
2016-12-22T16:52:31.517Z,0
2016-12-22T16:53:42.783Z,0
2016-12-22T16:54:53.770Z,0
2016-12-22T16:56:04.759Z,0
2016-12-22T16:57:15.957Z,0
2016-12-22T16:58:26.950Z,0